Time;durP1;ratioP1;P1;durP2;ratioP2;P2;SDS_P1;SDS_P2;PMS_P1;PMS_P2;Temp;Humidity;BMP_temperature;BMP_pressure;BME280_temperature;BME280_humidity;BME280_pressure;Samples;Min_cycle;Max_cycle;Signal;HPM_P1;HPM_P2
2024/02/18 00:00:00;;;;;;;42.55;31.65;;;282.00;2278.40;;;;;;4823918;29;20038;-71
2024/02/18 00:02:27;;;;;;;36.78;27.08;;;282.10;2278.40;;;;;;4822936;29;20372;-72
2024/02/18 00:04:53;;;;;;;37.03;27.05;;;282.10;2278.40;;;;;;4823084;29;20075;-69
2024/02/18 00:07:20;;;;;;;37.95;27.35;;;282.00;2278.40;;;;;;4830316;29;20062;-77
2024/02/18 00:09:46;;;;;;;70.05;44.47;;;282.00;2278.40;;;;;;4827200;29;20033;-75
2024/02/18 00:12:12;;;;;;;77.25;48.72;;;282.00;2278.40;;;;;;4839612;29;20026;-73
2024/02/18 00:14:38;;;;;;;45.00;30.30;;;281.90;2278.40;;;;;;4839186;29;20524;-71
2024/02/18 00:17:04;;;;;;;33.38;25.13;;;281.90;2278.40;;;;;;4832557;29;20087;-71
2024/02/18 00:19:29;;;;;;;35.17;27.45;;;282.00;2278.40;;;;;;4827655;29;20026;-74
2024/02/18 00:21:56;;;;;;;36.08;26.55;;;282.10;2278.40;;;;;;4833108;29;20106;-70
2024/02/18 00:24:22;;;;;;;33.65;27.35;;;282.10;2278.40;;;;;;4829219;29;20022;-71
2024/02/18 00:26:51;;;;;;;32.58;25.23;;;282.00;2278.40;;;;;;4828728;29;20034;-71
2024/02/18 00:29:17;;;;;;;38.55;28.27;;;282.00;2278.40;;;;;;4827833;29;20023;-71
2024/02/18 00:31:43;;;;;;;37.20;28.25;;;281.90;2278.40;;;;;;4828679;29;20113;-70
2024/02/18 00:34:09;;;;;;;31.92;26.38;;;282.00;2278.40;;;;;;4827109;29;20022;-71
2024/02/18 00:36:39;;;;;;;29.63;25.88;;;282.10;2278.40;;;;;;4836979;29;20033;-77
2024/02/18 00:39:05;;;;;;;37.47;27.02;;;282.10;2278.40;;;;;;4821813;29;20027;-73
2024/02/18 00:41:31;;;;;;;30.35;24.42;;;282.10;2278.40;;;;;;4832923;29;20086;-69
2024/02/18 00:43:57;;;;;;;26.38;21.92;;;282.10;2278.40;;;;;;4835355;29;20362;-72
2024/02/18 00:46:22;;;;;;;35.15;27.75;;;282.10;2278.40;;;;;;4822845;29;20038;-74
2024/02/18 00:48:48;;;;;;;27.05;22.73;;;282.00;2278.40;;;;;;4828326;29;20057;-69
2024/02/18 00:51:14;;;;;;;29.83;22.52;;;282.10;2278.40;;;;;;4828970;29;20018;-69
2024/02/18 00:53:40;;;;;;;33.22;23.70;;;282.10;2278.40;;;;;;4832587;29;20084;-77
2024/02/18 00:56:06;;;;;;;31.88;25.25;;;282.00;2278.40;;;;;;4821872;29;20038;-75
2024/02/18 00:58:31;;;;;;;34.05;23.23;;;282.10;2278.40;;;;;;4832160;29;20029;-76
2024/02/18 01:00:57;;;;;;;41.78;28.48;;;282.10;2278.40;;;;;;4837296;29;20026;-74
2024/02/18 01:03:23;;;;;;;31.27;22.58;;;282.20;2278.40;;;;;;4838232;29;20029;-71
2024/02/18 01:05:49;;;;;;;32.30;25.38;;;282.00;2278.40;;;;;;4838701;29;20040;-70
2024/02/18 01:08:16;;;;;;;34.03;24.08;;;282.00;2278.40;;;;;;4839056;29;20029;-70
2024/02/18 01:10:42;;;;;;;31.25;23.75;;;282.00;2278.40;;;;;;4838627;29;20030;-70
2024/02/18 01:13:08;;;;;;;40.47;28.90;;;282.10;2278.40;;;;;;4839210;29;20033;-70
2024/02/18 01:15:33;;;;;;;26.63;22.65;;;282.10;2278.40;;;;;;4838234;29;20541;-72
2024/02/18 01:17:59;;;;;;;32.35;24.30;;;282.10;2278.40;;;;;;4838542;29;20032;-70
2024/02/18 01:20:25;;;;;;;27.63;21.77;;;282.10;2278.40;;;;;;4838888;29;20033;-71
2024/02/18 01:22:50;;;;;;;31.38;23.70;;;282.10;2278.40;;;;;;4838629;29;20465;-70
2024/02/18 01:25:16;;;;;;;38.50;27.50;;;282.10;2278.40;;;;;;4839054;29;20102;-70
2024/02/18 01:27:42;;;;;;;35.03;26.40;;;282.10;2278.40;;;;;;4838516;29;20029;-71
2024/02/18 01:30:08;;;;;;;30.15;23.63;;;282.10;2278.40;;;;;;4838910;29;20488;-70
2024/02/18 01:32:34;;;;;;;30.50;27.38;;;282.10;2278.40;;;;;;4838702;29;20022;-72
2024/02/18 01:34:59;;;;;;;26.95;21.88;;;282.10;2278.40;;;;;;4838373;29;20045;-71
2024/02/18 01:37:25;;;;;;;28.40;21.20;;;282.10;2278.40;;;;;;4838774;29;20021;-71
2024/02/18 01:39:51;;;;;;;34.42;24.63;;;282.10;2278.40;;;;;;4838351;29;20466;-70
2024/02/18 01:42:16;;;;;;;28.25;22.85;;;282.20;2278.40;;;;;;4838494;29;20022;-69
2024/02/18 01:44:42;;;;;;;30.52;22.20;;;282.30;2278.40;;;;;;4838261;29;20029;-71
2024/02/18 01:47:08;;;;;;;29.77;22.60;;;282.30;2278.40;;;;;;4838386;29;20254;-70
2024/02/18 01:49:34;;;;;;;27.48;21.77;;;282.30;2278.40;;;;;;4822425;29;20452;-72
2024/02/18 01:52:01;;;;;;;29.92;23.45;;;282.30;2278.40;;;;;;4838016;29;20062;-71
2024/02/18 01:54:33;;;;;;;32.08;22.75;;;282.20;2278.40;;;;;;4838162;29;20133;-70
2024/02/18 01:57:03;;;;;;;49.97;36.47;;;282.20;2278.40;;;;;;4838133;29;20056;-71
2024/02/18 01:59:31;;;;;;;31.23;21.70;;;282.20;2278.40;;;;;;4837998;29;20109;-72
2024/02/18 02:01:57;;;;;;;25.52;20.92;;;282.30;2278.40;;;;;;4838109;29;20074;-72
2024/02/18 02:04:23;;;;;;;26.58;20.20;;;282.30;2278.40;;;;;;4838106;29;20082;-71
2024/02/18 02:06:50;;;;;;;25.92;19.85;;;282.30;2278.40;;;;;;4829768;29;20419;-71
2024/02/18 02:09:16;;;;;;;27.67;22.33;;;282.30;2278.40;;;;;;4831612;29;20041;-71
2024/02/18 02:11:42;;;;;;;26.38;21.00;;;282.30;2278.40;;;;;;4838098;29;20026;-72
2024/02/18 02:14:08;;;;;;;26.35;21.25;;;282.40;2278.40;;;;;;4838144;29;20034;-71
2024/02/18 02:16:34;;;;;;;27.75;20.85;;;282.30;2278.40;;;;;;4837991;29;20548;-71
2024/02/18 02:19:00;;;;;;;25.58;20.58;;;282.30;2278.40;;;;;;4837695;29;20040;-72
2024/02/18 02:21:26;;;;;;;25.35;19.95;;;282.20;2278.40;;;;;;4836676;29;20457;-77
2024/02/18 02:23:51;;;;;;;29.02;20.85;;;282.20;2278.40;;;;;;4838114;29;20033;-71
2024/02/18 02:26:20;;;;;;;27.55;21.02;;;282.10;2278.40;;;;;;4835986;29;20149;-73
2024/02/18 02:29:05;;;;;;;26.42;21.77;;;282.00;2278.40;;;;;;4838178;29;20058;-72
2024/02/18 02:31:31;;;;;;;23.83;19.27;;;282.10;2278.40;;;;;;4833358;29;20041;-70
2024/02/18 02:33:57;;;;;;;31.92;27.52;;;282.10;2278.40;;;;;;4837805;29;20025;-73
2024/02/18 02:36:22;;;;;;;25.02;19.35;;;282.10;2278.40;;;;;;4837405;29;20097;-72
2024/02/18 02:38:48;;;;;;;28.50;21.50;;;282.20;2278.40;;;;;;4837663;29;20040;-74
2024/02/18 02:41:14;;;;;;;25.80;20.42;;;282.10;2278.40;;;;;;4837945;29;20040;-70
2024/02/18 02:43:39;;;;;;;23.27;16.63;;;282.10;2278.40;;;;;;4837447;29;20069;-72
2024/02/18 02:46:05;;;;;;;21.65;17.23;;;282.10;2278.40;;;;;;4837813;29;20041;-76
2024/02/18 02:48:31;;;;;;;21.88;17.77;;;282.10;2278.40;;;;;;4837387;29;20030;-74
2024/02/18 02:50:57;;;;;;;22.10;16.58;;;282.10;2278.40;;;;;;4837735;29;20026;-70
2024/02/18 02:53:22;;;;;;;24.30;16.10;;;282.20;2278.40;;;;;;4836964;29;20033;-77
2024/02/18 02:55:48;;;;;;;18.55;15.10;;;282.10;2278.40;;;;;;4837396;29;20132;-73
2024/02/18 02:58:14;;;;;;;24.52;16.73;;;282.00;2278.40;;;;;;4837622;29;20068;-71
2024/02/18 03:00:39;;;;;;;24.77;16.33;;;282.00;2278.40;;;;;;4837253;29;20104;-72
2024/02/18 03:03:05;;;;;;;21.33;17.45;;;282.10;2278.40;;;;;;4837513;29;20030;-72
2024/02/18 03:05:31;;;;;;;24.02;17.75;;;282.10;2278.40;;;;;;4837402;29;20081;-71
2024/02/18 03:07:57;;;;;;;19.77;16.15;;;282.10;2278.40;;;;;;4837420;29;20030;-72
2024/02/18 03:10:22;;;;;;;20.00;16.25;;;282.00;2278.40;;;;;;4837283;29;20167;-73
2024/02/18 03:12:48;;;;;;;28.77;20.65;;;282.00;2278.40;;;;;;4837339;29;20045;-72
2024/02/18 03:15:14;;;;;;;21.75;17.73;;;282.00;2278.40;;;;;;4840312;29;20037;-71
2024/02/18 03:17:40;;;;;;;22.10;16.85;;;282.00;2278.40;;;;;;4841930;29;20029;-73
2024/02/18 03:20:07;;;;;;;23.52;17.50;;;282.00;2278.40;;;;;;4837624;29;20034;-72
2024/02/18 03:22:34;;;;;;;25.23;18.73;;;281.90;2278.40;;;;;;4837366;29;20433;-74
2024/02/18 03:25:00;;;;;;;24.45;18.20;;;281.90;2278.40;;;;;;4839816;29;20042;-74
2024/02/18 03:27:25;;;;;;;24.10;17.80;;;281.90;2278.40;;;;;;4840675;29;20030;-71
2024/02/18 03:29:51;;;;;;;21.35;15.77;;;281.90;2278.40;;;;;;4840562;29;20033;-74
2024/02/18 03:32:17;;;;;;;23.70;17.13;;;282.00;2278.40;;;;;;4840738;29;20053;-74
2024/02/18 03:34:43;;;;;;;21.20;16.58;;;281.90;2278.40;;;;;;4840301;29;20030;-73
2024/02/18 03:37:09;;;;;;;20.85;16.83;;;281.90;2278.40;;;;;;4840285;29;20065;-72
2024/02/18 03:39:35;;;;;;;25.13;18.27;;;282.00;2278.40;;;;;;4840555;29;20106;-72
2024/02/18 03:42:00;;;;;;;22.50;15.00;;;282.00;2278.40;;;;;;4840527;29;20030;-72
2024/02/18 03:44:26;;;;;;;23.08;16.77;;;282.00;2278.40;;;;;;4840399;29;20022;-76
2024/02/18 03:46:52;;;;;;;22.63;16.30;;;281.90;2278.40;;;;;;4840073;29;20030;-71
2024/02/18 03:49:18;;;;;;;21.23;16.17;;;281.80;2278.40;;;;;;4840364;29;20026;-72
2024/02/18 03:51:43;;;;;;;20.15;14.75;;;281.80;2278.40;;;;;;4839898;29;20038;-72
2024/02/18 03:54:09;;;;;;;19.50;16.17;;;281.80;2278.40;;;;;;4840134;29;20065;-72
2024/02/18 03:56:35;;;;;;;21.02;16.00;;;281.80;2278.40;;;;;;4840342;29;20094;-71
2024/02/18 03:59:01;;;;;;;20.83;16.42;;;281.80;2278.40;;;;;;4840404;29;20026;-72
2024/02/18 04:01:27;;;;;;;22.88;15.35;;;281.90;2278.40;;;;;;4840033;29;20473;-71
2024/02/18 04:03:52;;;;;;;21.23;15.13;;;281.90;2278.40;;;;;;4839801;29;20053;-71
2024/02/18 04:06:18;;;;;;;22.70;14.93;;;281.80;2278.40;;;;;;4840276;29;20825;-72
2024/02/18 04:08:44;;;;;;;19.55;13.80;;;281.80;2278.40;;;;;;4840144;29;20441;-72
2024/02/18 04:11:10;;;;;;;20.65;15.73;;;281.80;2278.40;;;;;;4839568;29;20030;-73
2024/02/18 04:13:37;;;;;;;16.85;14.05;;;281.80;2278.40;;;;;;4839967;29;20022;-73
2024/02/18 04:16:03;;;;;;;21.90;16.52;;;281.70;2278.40;;;;;;4839495;29;20049;-71
2024/02/18 04:18:29;;;;;;;25.50;15.70;;;281.70;2278.40;;;;;;4839637;29;20022;-71
2024/02/18 04:20:55;;;;;;;18.55;14.85;;;281.70;2278.40;;;;;;4839652;29;20101;-71
2024/02/18 04:23:21;;;;;;;19.88;15.38;;;281.70;2278.40;;;;;;4839766;29;20061;-72
2024/02/18 04:25:46;;;;;;;18.95;14.90;;;281.60;2278.40;;;;;;4823062;29;20038;-74
2024/02/18 04:28:12;;;;;;;22.15;15.70;;;281.70;2278.40;;;;;;4839659;29;20026;-70
2024/02/18 04:30:38;;;;;;;21.13;15.00;;;281.70;2278.40;;;;;;4839523;29;20033;-72
2024/02/18 04:33:04;;;;;;;20.55;14.38;;;281.60;2278.40;;;;;;4839603;29;20411;-70
2024/02/18 04:35:30;;;;;;;20.17;15.45;;;281.60;2278.40;;;;;;4838932;29;20041;-72
2024/02/18 04:37:56;;;;;;;22.05;15.50;;;281.60;2278.40;;;;;;4839681;29;20026;-72
2024/02/18 04:40:21;;;;;;;21.13;15.23;;;281.60;2278.40;;;;;;4839296;29;20026;-74
2024/02/18 04:42:47;;;;;;;18.05;14.50;;;281.70;2278.40;;;;;;4839482;29;20026;-71
2024/02/18 04:45:13;;;;;;;19.63;15.45;;;281.60;2278.40;;;;;;4839081;29;20038;-71
2024/02/18 04:47:39;;;;;;;19.48;14.93;;;281.60;2278.40;;;;;;4839123;29;20034;-70
2024/02/18 04:50:05;;;;;;;21.77;14.55;;;256.90;2252.80;;;;;;4839155;29;20034;-72
2024/02/18 04:52:31;;;;;;;16.70;14.23;;;256.90;2252.80;;;;;;4828934;29;20034;-72
2024/02/18 04:54:57;;;;;;;19.88;15.00;;;256.90;2252.80;;;;;;4842262;29;20061;-73
2024/02/18 04:57:23;;;;;;;47.85;36.08;;;256.90;2252.80;;;;;;4842902;29;20026;-72
2024/02/18 04:59:49;;;;;;;17.08;13.90;;;256.90;2252.80;;;;;;4842941;29;20030;-70
2024/02/18 05:02:15;;;;;;;18.60;14.07;;;256.90;2252.80;;;;;;4842857;29;20030;-70
2024/02/18 05:08:03;;;;;;;19.58;13.80;;;256.90;2252.80;;;;;;4843402;29;20056;-71
2024/02/18 05:10:29;;;;;;;19.90;15.50;;;256.80;2252.80;;;;;;4842684;29;20041;-71
2024/02/18 05:12:55;;;;;;;21.30;16.33;;;256.80;2252.80;;;;;;4843219;29;20030;-72
2024/02/18 05:15:21;;;;;;;21.10;14.55;;;256.70;2252.80;;;;;;4842526;29;20559;-75
2024/02/18 05:17:46;;;;;;;26.25;16.73;;;256.60;2252.80;;;;;;4842648;29;20030;-71
2024/02/18 05:23:36;;;;;;;22.27;14.93;;;256.50;2252.80;;;;;;4842360;29;20066;-71
2024/02/18 05:26:02;;;;;;;18.20;14.23;;;256.30;2252.80;;;;;;4838745;29;20536;-72
2024/02/18 05:28:30;;;;;;;20.42;14.52;;;256.30;2252.80;;;;;;4838777;29;20485;-71
2024/02/18 05:30:57;;;;;;;21.00;14.07;;;256.20;2252.80;;;;;;4838718;29;20022;-70
2024/02/18 05:33:23;;;;;;;22.75;15.40;;;256.20;2252.80;;;;;;4838459;29;20089;-73
2024/02/18 05:35:49;;;;;;;22.08;15.77;;;256.10;2252.80;;;;;;4838190;29;20045;-72
2024/02/18 05:38:15;;;;;;;33.08;28.13;;;256.10;2252.80;;;;;;4838503;29;20026;-71
2024/02/18 05:40:41;;;;;;;25.15;15.43;;;256.00;2252.80;;;;;;4838371;29;20033;-71
2024/02/18 05:43:07;;;;;;;20.50;15.75;;;231.30;2252.80;;;;;;4838895;29;20029;-74
2024/02/18 05:45:32;;;;;;;20.80;15.77;;;231.30;2252.80;;;;;;4838160;29;20034;-69
2024/02/18 05:47:58;;;;;;;20.42;15.07;;;231.30;2252.80;;;;;;4837641;29;20815;-71
2024/02/18 05:50:24;;;;;;;21.77;16.17;;;231.30;2252.80;;;;;;4838412;29;20061;-71
2024/02/18 05:52:50;;;;;;;20.88;15.18;;;231.30;2252.80;;;;;;4837888;29;20052;-73
2024/02/18 05:55:16;;;;;;;19.23;13.00;;;256.10;2252.80;;;;;;4838001;29;20509;-71
2024/02/18 05:57:41;;;;;;;20.27;14.73;;;256.20;2252.80;;;;;;4838262;29;20097;-72
2024/02/18 06:00:08;;;;;;;19.67;14.35;;;256.10;2252.80;;;;;;4838240;29;20032;-71
2024/02/18 06:02:33;;;;;;;27.55;24.55;;;256.10;2252.80;;;;;;4838206;29;20478;-72
2024/02/18 06:04:59;;;;;;;27.92;14.00;;;256.20;2252.80;;;;;;4849970;29;20029;-70
2024/02/18 06:07:25;;;;;;;18.08;13.88;;;256.20;2252.80;;;;;;4834904;29;20049;-71
2024/02/18 06:09:51;;;;;;;22.80;17.95;;;256.20;2252.80;;;;;;4838049;29;20109;-69
2024/02/18 06:12:18;;;;;;;26.05;20.35;;;256.20;2252.80;;;;;;4838333;29;20105;-70
2024/02/18 06:14:44;;;;;;;249.82;197.23;;;256.30;2252.80;;;;;;4837803;29;20038;-72
2024/02/18 06:17:10;;;;;;;27.58;20.27;;;256.30;2252.80;;;;;;4838244;29;20037;-73
2024/02/18 06:19:36;;;;;;;21.88;18.23;;;256.50;2252.80;;;;;;4836843;29;20081;-71
2024/02/18 06:22:02;;;;;;;20.58;17.52;;;256.50;2252.80;;;;;;4837718;29;20030;-70
2024/02/18 06:24:28;;;;;;;28.83;18.90;;;256.50;2252.80;;;;;;4827401;29;20548;-71
2024/02/18 06:26:54;;;;;;;22.27;15.38;;;256.70;2252.80;;;;;;4837154;29;20105;-69
2024/02/18 06:29:20;;;;;;;18.70;15.40;;;256.70;2252.80;;;;;;4837570;29;20030;-73
2024/02/18 06:31:46;;;;;;;21.80;14.95;;;256.80;2252.80;;;;;;4831070;29;20033;-73
2024/02/18 06:34:12;;;;;;;17.02;12.55;;;256.80;2252.80;;;;;;4828693;29;20453;-72
2024/02/18 06:36:38;;;;;;;20.33;15.18;;;256.80;2252.80;;;;;;4820613;29;20103;-70
2024/02/18 06:39:04;;;;;;;17.05;12.48;;;256.80;2252.80;;;;;;4829405;29;20038;-68
2024/02/18 06:41:31;;;;;;;18.23;13.73;;;256.90;2252.80;;;;;;4831629;29;20026;-70
2024/02/18 06:43:57;;;;;;;21.90;14.13;;;256.90;2252.80;;;;;;4831462;29;20130;-69
2024/02/18 06:46:23;;;;;;;21.00;15.07;;;281.60;2278.40;;;;;;4834630;29;20113;-71
2024/02/18 06:48:51;;;;;;;29.38;20.30;;;281.70;2278.40;;;;;;4837058;29;20109;-69
2024/02/18 06:51:17;;;;;;;19.85;14.07;;;281.80;2278.40;;;;;;4836284;29;20477;-71
2024/02/18 06:53:43;;;;;;;19.58;15.13;;;281.90;2278.40;;;;;;4836542;29;20058;-68
2024/02/18 06:56:10;;;;;;;30.80;22.65;;;282.00;2278.40;;;;;;4837243;29;20260;-70
2024/02/18 06:58:35;;;;;;;27.23;21.23;;;282.10;2278.40;;;;;;4837695;29;20498;-69
2024/02/18 07:01:01;;;;;;;27.10;18.70;;;282.20;2278.40;;;;;;4840187;29;20101;-72
2024/02/18 07:03:27;;;;;;;18.15;14.30;;;282.20;2278.40;;;;;;4840569;29;20026;-69
2024/02/18 07:05:55;;;;;;;19.70;14.75;;;282.30;2278.40;;;;;;4840212;29;20030;-69
2024/02/18 07:08:21;;;;;;;21.58;15.43;;;282.20;2278.40;;;;;;4840846;29;20025;-69
2024/02/18 07:10:47;;;;;;;20.58;14.40;;;282.30;2278.40;;;;;;4838648;29;20480;-69
2024/02/18 07:13:12;;;;;;;16.27;12.02;;;282.40;2278.40;;;;;;4834954;29;20079;-69
2024/02/18 07:15:38;;;;;;;38.65;24.42;;;282.50;2278.40;;;;;;4829370;29;20585;-70
2024/02/18 07:18:04;;;;;;;17.95;14.27;;;307.40;2304.00;;;;;;4839916;29;20030;-69
2024/02/18 07:20:30;;;;;;;19.70;15.60;;;307.50;2304.00;;;;;;4839722;29;20066;-68
2024/02/18 07:22:57;;;;;;;21.08;15.25;;;307.40;2304.00;;;;;;4838081;29;20090;-72
2024/02/18 07:25:23;;;;;;;20.05;14.60;;;307.50;2304.00;;;;;;4840251;29;20393;-71
2024/02/18 07:27:48;;;;;;;18.98;13.55;;;307.70;2304.00;;;;;;4840189;29;20042;-71
2024/02/18 07:30:14;;;;;;;21.42;15.90;;;308.00;2304.00;;;;;;4838746;29;20561;-72
2024/02/18 07:32:40;;;;;;;25.00;17.63;;;308.10;2304.00;;;;;;4829090;29;20041;-75
2024/02/18 07:35:06;;;;;;;47.65;29.73;;;308.10;2304.00;;;;;;4823545;29;20500;-72
2024/02/18 07:37:32;;;;;;;20.42;13.45;;;332.90;2329.60;;;;;;4838500;29;20139;-71
2024/02/18 07:39:57;;;;;;;31.85;19.88;;;332.90;2329.60;;;;;;4835139;29;20029;-71
2024/02/18 07:42:23;;;;;;;21.05;15.18;;;332.90;2329.60;;;;;;4834408;29;20066;-72
2024/02/18 07:44:49;;;;;;;18.05;12.57;;;333.00;2329.60;;;;;;4839948;29;20029;-72
2024/02/18 07:47:16;;;;;;;32.53;17.65;;;332.90;2329.60;;;;;;4839766;29;20034;-71
2024/02/18 07:49:41;;;;;;;15.52;10.93;;;332.80;2329.60;;;;;;4839774;29;20559;-72
2024/02/18 07:52:07;;;;;;;16.58;11.55;;;333.20;2329.60;;;;;;4840006;29;20033;-73
2024/02/18 07:54:33;;;;;;;16.73;12.10;;;384.10;2329.60;;;;;;4839740;29;20099;-72
2024/02/18 07:56:58;;;;;;;19.83;14.60;;;410.20;2278.40;;;;;;4826475;29;20039;-72
2024/02/18 07:59:24;;;;;;;20.30;13.85;;;409.60;2304.00;;;;;;4830370;29;20036;-72
2024/02/18 08:01:50;;;;;;;28.95;20.08;;;384.40;2329.60;;;;;;4831062;29;20070;-73
2024/02/18 08:04:16;;;;;;;15.07;11.95;;;409.80;2304.00;;;;;;4839374;29;20157;-72
2024/02/18 08:06:43;;;;;;;16.50;11.68;;;435.90;2150.40;;;;;;4836289;29;20129;-75
2024/02/18 08:09:08;;;;;;;14.80;11.73;;;435.60;2124.80;;;;;;4830187;29;20027;-73
2024/02/18 08:11:35;;;;;;;19.38;12.82;;;461.30;2073.60;;;;;;4824180;29;20118;-72
2024/02/18 08:14:01;;;;;;;37.67;24.88;;;461.50;2022.40;;;;;;4832221;29;20030;-72
2024/02/18 08:16:28;;;;;;;27.40;18.95;;;487.10;1945.60;;;;;;4835719;29;20042;-72
2024/02/18 08:18:55;;;;;;;35.53;23.90;;;537.60;1868.80;;;;;;4822199;29;20031;-73
2024/02/18 08:21:22;;;;;;;55.67;43.47;;;512.50;1843.20;;;;;;4824586;29;20079;-73
2024/02/18 08:23:49;;;;;;;35.13;24.45;;;537.90;1817.60;;;;;;4839116;29;20659;-74
2024/02/18 08:26:25;;;;;;;70.22;45.70;;;487.20;1868.80;;;;;;4839023;29;20388;-72
2024/02/18 08:28:52;;;;;;;59.55;44.45;;;512.30;1843.20;;;;;;4829967;29;20022;-75
2024/02/18 08:31:18;;;;;;;46.70;38.20;;;537.60;1766.40;;;;;;4838748;29;20065;-73
2024/02/18 08:33:48;;;;;;;32.95;25.10;;;487.20;1843.20;;;;;;4838964;29;20032;-73
2024/02/18 08:36:14;;;;;;;29.60;23.88;;;461.50;1920.00;;;;;;4839012;29;20102;-73
2024/02/18 08:38:41;;;;;;;16.17;13.73;;;435.50;1971.20;;;;;;4838752;29;20090;-73
2024/02/18 08:41:06;;;;;;;23.02;16.85;;;410.20;2022.40;;;;;;4834689;29;20510;-72
2024/02/18 08:43:35;;;;;;;17.25;13.52;;;461.30;1945.60;;;;;;4830528;29;20112;-72
2024/02/18 08:46:01;;;;;;;59.00;41.00;;;512.30;1792.00;;;;;;4838697;29;20086;-71
2024/02/18 08:48:28;;;;;;;36.00;28.20;;;537.60;1766.40;;;;;;4838856;29;20034;-72
2024/02/18 08:50:54;;;;;;;24.23;19.23;;;588.80;1715.20;;;;;;4833906;29;20481;-72
2024/02/18 08:53:20;;;;;;;64.85;43.22;;;614.60;1587.20;;;;;;4837912;29;20042;-73
2024/02/18 08:55:46;;;;;;;35.83;26.85;;;563.80;1664.00;;;;;;4839200;29;20049;-74
2024/02/18 08:58:12;;;;;;;37.95;29.63;;;512.30;1715.20;;;;;;4836391;29;20050;-72
2024/02/18 09:00:37;;;;;;;15.30;12.20;;;461.40;1817.60;;;;;;4838841;29;20072;-72
2024/02/18 09:03:03;;;;;;;12.88;10.40;;;435.80;1868.80;;;;;;4838445;29;20030;-71
2024/02/18 09:05:29;;;;;;;24.17;18.75;;;486.90;1792.00;;;;;;4838150;29;20022;-72
2024/02/18 09:07:55;;;;;;;16.10;12.90;;;461.10;1868.80;;;;;;4838928;29;20026;-72
2024/02/18 09:10:21;;;;;;;27.23;20.95;;;461.50;1868.80;;;;;;4838348;29;20369;-74
2024/02/18 09:12:46;;;;;;;29.77;23.33;;;537.90;1715.20;;;;;;4834040;29;20477;-73
2024/02/18 09:15:12;;;;;;;26.70;18.25;;;563.80;1638.40;;;;;;4834308;29;20053;-72
2024/02/18 09:17:38;;;;;;;53.40;35.03;;;537.90;1664.00;;;;;;4825063;29;20034;-77
2024/02/18 09:20:05;;;;;;;36.90;23.08;;;538.50;1612.80;;;;;;4830809;29;20374;-72
2024/02/18 09:22:31;;;;;;;10.73;8.27;;;537.70;1664.00;;;;;;4836998;29;20018;-72
2024/02/18 09:24:57;;;;;;;41.08;25.67;;;563.60;1587.20;;;;;;4838414;29;20541;-72
2024/02/18 09:27:23;;;;;;;18.02;15.73;;;538.10;1612.80;;;;;;4837360;29;20525;-72
2024/02/18 09:29:49;;;;;;;25.67;19.45;;;512.40;1638.40;;;;;;4837803;29;20026;-74
2024/02/18 09:32:14;;;;;;;25.52;18.38;;;486.70;1715.20;;;;;;4844728;29;20051;-73
2024/02/18 09:34:40;;;;;;;39.45;21.77;;;461.40;1766.40;;;;;;4829179;29;20042;-73
2024/02/18 09:37:06;;;;;;;65.13;35.67;;;436.10;1792.00;;;;;;4837663;29;20466;-72
2024/02/18 09:39:32;;;;;;;37.55;23.38;;;435.60;1843.20;;;;;;4836724;29;20066;-73
2024/02/18 09:41:58;;;;;;;29.27;20.23;;;410.20;1894.40;;;;;;4838518;29;20113;-73
2024/02/18 09:44:29;;;;;;;18.05;11.27;;;410.00;1920.00;;;;;;4834683;29;20033;-74
2024/02/18 09:46:58;;;;;;;38.90;27.80;;;384.90;1945.60;;;;;;4833508;29;20105;-73
2024/02/18 09:49:26;;;;;;;102.85;61.47;;;384.70;1945.60;;;;;;4834588;29;20022;-73
2024/02/18 09:51:55;;;;;;;86.18;54.83;;;384.50;1971.20;;;;;;4835465;29;20473;-71
2024/02/18 09:54:22;;;;;;;46.70;28.10;;;384.90;1945.60;;;;;;4806354;29;20400;-72
2024/02/18 09:56:48;;;;;;;25.48;15.95;;;409.80;1971.20;;;;;;4838485;29;20385;-70
2024/02/18 09:59:15;;;;;;;70.90;46.25;;;410.20;1971.20;;;;;;4839318;29;20485;-76
2024/02/18 10:01:41;;;;;;;25.23;20.15;;;435.40;1920.00;;;;;;4838019;29;20042;-73
2024/02/18 10:04:08;;;;;;;15.77;12.85;;;435.50;1894.40;;;;;;4821267;29;20109;-71
2024/02/18 10:06:34;;;;;;;11.80;9.15;;;435.60;1868.80;;;;;;4840576;29;20026;-70
2024/02/18 10:09:00;;;;;;;9.60;7.05;;;435.80;1868.80;;;;;;4840310;29;20065;-71
2024/02/18 10:11:26;;;;;;;10.15;6.82;;;435.70;1868.80;;;;;;4843262;29;20591;-73
2024/02/18 10:13:58;;;;;;;8.82;5.40;;;435.60;1868.80;;;;;;4840723;29;20034;-70
2024/02/18 10:16:24;;;;;;;8.23;6.45;;;435.50;1894.40;;;;;;4832361;29;20072;-71
2024/02/18 10:18:49;;;;;;;6.88;4.72;;;435.60;1817.60;;;;;;4824960;29;20030;-70
2024/02/18 10:21:16;;;;;;;9.73;6.93;;;435.30;1843.20;;;;;;4829272;29;20103;-70
2024/02/18 10:23:43;;;;;;;10.20;7.95;;;410.50;1843.20;;;;;;4827899;29;20023;-70
2024/02/18 10:26:09;;;;;;;8.77;6.75;;;435.20;1843.20;;;;;;4827979;29;20073;-70
2024/02/18 10:28:41;;;;;;;12.10;10.57;;;410.50;1868.80;;;;;;4830144;29;20026;-70
2024/02/18 10:31:07;;;;;;;8.35;5.82;;;435.30;1868.80;;;;;;4827786;29;20038;-72
2024/02/18 10:33:37;;;;;;;8.15;5.90;;;410.50;1843.20;;;;;;4828601;29;20114;-70
2024/02/18 10:36:08;;;;;;;9.73;6.60;;;435.30;1843.20;;;;;;4829274;29;20035;-73
2024/02/18 10:38:37;;;;;;;7.13;6.05;;;435.30;1843.20;;;;;;4827012;29;20051;-70
2024/02/18 10:41:07;;;;;;;13.48;10.55;;;435.30;1843.20;;;;;;4831489;29;20041;-70
2024/02/18 10:43:43;;;;;;;17.80;13.40;;;435.20;1894.40;;;;;;4830656;29;20027;-72
2024/02/18 10:46:10;;;;;;;17.27;12.65;;;410.30;1868.80;;;;;;4836589;29;20034;-73
2024/02/18 10:48:38;;;;;;;10.18;7.97;;;410.30;1894.40;;;;;;4833370;29;20026;-70
2024/02/18 10:51:06;;;;;;;8.25;7.05;;;409.80;1920.00;;;;;;4826469;29;20427;-72
2024/02/18 10:53:34;;;;;;;11.95;10.18;;;409.60;1945.60;;;;;;4827627;29;20046;-79
2024/02/18 10:56:00;;;;;;;19.33;12.27;;;384.70;1945.60;;;;;;4829353;29;20094;-70
2024/02/18 10:58:42;;;;;;;10.13;8.68;;;384.60;1971.20;;;;;;4833888;29;20034;-74
2024/02/18 11:01:12;;;;;;;23.23;17.48;;;384.60;1971.20;;;;;;4832646;29;20030;-70
2024/02/18 11:03:47;;;;;;;9.48;6.97;;;384.40;1971.20;;;;;;4832214;29;20081;-70
2024/02/18 11:06:14;;;;;;;12.25;8.35;;;359.30;2022.40;;;;;;4831527;29;20038;-73
2024/02/18 11:08:43;;;;;;;20.77;15.32;;;359.30;1996.80;;;;;;4832781;29;20022;-72
2024/02/18 11:11:09;;;;;;;7.07;6.32;;;384.10;1971.20;;;;;;4832684;29;20052;-70
2024/02/18 11:13:36;;;;;;;8.98;6.22;;;384.00;1996.80;;;;;;4837543;29;20025;-70
2024/02/18 11:16:02;;;;;;;8.15;6.57;;;384.00;1996.80;;;;;;4835844;29;20090;-73
2024/02/18 11:18:32;;;;;;;10.75;7.68;;;384.10;1971.20;;;;;;4825697;29;20109;-70
2024/02/18 11:20:58;;;;;;;16.67;10.85;;;384.40;1971.20;;;;;;4828728;29;20027;-72
2024/02/18 11:23:24;;;;;;;8.23;6.30;;;384.40;1920.00;;;;;;4835230;29;20072;-70
2024/02/18 11:25:50;;;;;;;11.45;9.73;;;384.30;1945.60;;;;;;4834095;29;20046;-74
2024/02/18 11:28:17;;;;;;;13.73;10.88;;;384.40;1920.00;;;;;;4834751;29;20030;-70
2024/02/18 11:30:44;;;;;;;11.35;6.68;;;384.40;1894.40;;;;;;4834061;29;20037;-69
2024/02/18 11:33:18;;;;;;;8.02;5.40;;;384.40;1894.40;;;;;;4825971;29;20033;-70
2024/02/18 11:35:44;;;;;;;7.13;6.15;;;384.50;1868.80;;;;;;4832281;29;20107;-69
2024/02/18 11:38:11;;;;;;;5.95;4.47;;;384.70;1843.20;;;;;;4836022;29;20046;-69
2024/02/18 11:40:50;;;;;;;5.22;4.03;;;384.80;1843.20;;;;;;4834289;29;20033;-71
2024/02/18 11:43:16;;;;;;;9.18;5.68;;;409.60;1843.20;;;;;;4835985;29;20033;-73
2024/02/18 11:45:46;;;;;;;31.30;22.83;;;384.90;1817.60;;;;;;4833728;29;20030;-69
2024/02/18 11:48:13;;;;;;;8.75;6.85;;;384.90;1817.60;;;;;;4834895;29;20118;-74
2024/02/18 11:50:39;;;;;;;12.45;9.73;;;384.80;1817.60;;;;;;4830518;29;20027;-72
2024/02/18 11:53:06;;;;;;;7.18;6.22;;;384.60;1817.60;;;;;;4827312;29;20120;-70
2024/02/18 11:55:33;;;;;;;11.60;8.73;;;384.30;1843.20;;;;;;4830950;29;20070;-69
2024/02/18 11:58:00;;;;;;;16.23;12.38;;;384.40;1843.20;;;;;;4831577;29;20521;-73
2024/02/18 12:00:28;;;;;;;18.67;11.45;;;384.40;1868.80;;;;;;4834260;29;20034;-72
2024/02/18 12:02:54;;;;;;;23.85;17.73;;;384.30;1868.80;;;;;;4831448;29;20042;-70